Terminal Aerodrome Forecast
Issued by NWS

Home | Current Version | Previous Version | Text Only | Print | Product List | Glossary On
Versions: 1 2 3 4 5 6 7 8 9 10 11 12 13 14 15 16 17 18 19 20 21 22 23 24 25 26
000
FTUS41 KGYX 242335
TAFRKD
TAF
KRKD 242335Z 2500/2524 VRB03KT P6SM FEW070 SCT250
      TEMPO 2501/2505 3SM BR BKN005
     FM250500 05004KT 2SM BR OVC003
     FM251200 07009KT 2SM -DZ BR OVC003
     FM252200 10012KT 1SM -SHRA BR OVC006=

USA.gov is the U.S. government's official web portal to all federal, state and local government web resources and services.